Time;durP1;ratioP1;P1;durP2;ratioP2;P2;SDS_P1;SDS_P2;PMS_P1;PMS_P2;Temp;Humidity;BMP_temperature;BMP_pressure;BME280_temperature;BME280_humidity;BME280_pressure;Samples;Min_cycle;Max_cycle;Signal;HPM_P1;HPM_P2
2023/04/02 00:02:22;;;;;;;;;6.00;5.67;;;;;15.05;100.00;101066.31;4967555;28;45300;-76
2023/04/02 00:05:15;;;;;;;;;6.33;6.33;;;;;15.02;100.00;101063.06;4966396;28;45353;-76
2023/04/02 00:07:43;;;;;;;;;7.33;6.67;;;;;14.91;100.00;101057.91;4965079;28;45258;-76
2023/04/02 00:10:35;;;;;;;;;7.33;5.33;;;;;15.00;100.00;101062.38;4965693;28;45367;-75
2023/04/02 00:13:32;;;;;;;;;8.33;5.33;;;;;15.13;100.00;101079.16;4967028;28;45531;-74
2023/04/02 00:15:59;;;;;;;;;6.00;6.00;;;;;14.98;100.00;101072.63;4968679;28;46286;-75
2023/04/02 00:18:26;;;;;;;;;3.33;3.33;;;;;14.83;100.00;101077.91;4966617;28;45246;-75
2023/04/02 00:20:54;;;;;;;;;10.33;8.00;;;;;14.86;100.00;101076.72;4965329;28;45254;-76
2023/04/02 00:23:21;;;;;;;;;5.00;5.00;;;;;14.50;100.00;101071.50;4967057;28;45377;-76
2023/04/02 00:25:47;;;;;;;;;7.33;5.67;;;;;14.34;100.00;101071.41;4964899;28;47099;-76
2023/04/02 00:28:20;;;;;;;;;6.00;6.00;;;;;14.62;100.00;101069.31;4981708;28;45445;-76
2023/04/02 00:30:49;;;;;;;;;9.67;9.00;;;;;14.47;100.00;101082.78;4966639;28;45422;-76
2023/04/02 00:33:17;;;;;;;;;6.33;4.00;;;;;14.33;100.00;101083.38;4966892;28;45427;-76
2023/04/02 00:35:43;;;;;;;;;7.33;5.00;;;;;14.50;100.00;101082.44;4965033;28;46647;-76
2023/04/02 00:38:21;;;;;;;;;6.67;5.00;;;;;14.72;100.00;101100.97;4966414;28;45313;-75
2023/04/02 00:40:48;;;;;;;;;8.33;4.33;;;;;14.55;100.00;101099.22;4981748;28;45373;-76
2023/04/02 00:43:19;;;;;;;;;6.33;5.00;;;;;14.72;100.00;101095.50;4965529;28;45540;-76
2023/04/02 00:45:49;;;;;;;;;7.00;6.67;;;;;14.75;100.00;101103.41;4966073;28;45686;-76
2023/04/02 00:48:27;;;;;;;;;6.00;6.00;;;;;14.58;100.00;101096.16;4964860;28;45739;-76
2023/04/02 00:50:54;;;;;;;;;9.67;6.00;;;;;14.33;100.00;101105.22;4966439;28;45437;-76
2023/04/02 00:53:30;;;;;;;;;11.33;9.33;;;;;14.36;100.00;101091.25;4965221;28;45236;-76
2023/04/02 00:56:01;;;;;;;;;8.33;6.00;;;;;14.58;100.00;101098.03;4965781;28;45293;-76
2023/04/02 00:58:36;;;;;;;;;6.00;6.00;;;;;14.50;100.00;101098.00;4963754;28;45338;-76
2023/04/02 01:01:03;;;;;;;;;12.67;11.00;;;;;14.51;100.00;101113.38;4981131;28;45535;-76
2023/04/02 01:03:33;;;;;;;;;10.67;9.33;;;;;14.50;100.00;101101.59;4966259;28;45460;-76
2023/04/02 01:06:10;;;;;;;;;6.00;6.00;;;;;14.40;100.00;101120.00;4964347;28;47021;-76
2023/04/02 01:09:00;;;;;;;;;8.67;6.33;;;;;14.43;100.00;101113.34;4964727;28;45419;-76
2023/04/02 01:11:46;;;;;;;;;3.33;3.33;;;;;14.57;100.00;101116.31;4966231;28;45298;-76
2023/04/02 01:14:44;;;;;;;;;6.00;6.00;;;;;14.51;100.00;101116.13;4966200;28;45353;-76
2023/04/02 01:17:25;;;;;;;;;4.00;4.00;;;;;14.45;100.00;101125.84;4997048;28;46340;-76
2023/04/02 01:20:06;;;;;;;;;7.33;7.33;;;;;14.50;100.00;101120.72;4965816;28;45151;-76
2023/04/02 01:22:53;;;;;;;;;10.67;8.67;;;;;14.42;100.00;101120.69;4964661;28;45349;-76
2023/04/02 01:25:39;;;;;;;;;8.67;8.67;;;;;14.45;100.00;101136.78;4966119;28;45392;-75
2023/04/02 01:28:08;;;;;;;;;6.00;6.00;;;;;14.37;100.00;101121.16;4964264;28;45650;-76
2023/04/02 01:30:35;;;;;;;;;6.00;6.00;;;;;14.50;100.00;101103.47;4965577;28;45368;-76
2023/04/02 01:33:01;;;;;;;;;10.67;8.00;;;;;14.55;100.00;101118.34;4980690;28;45559;-76
2023/04/02 01:35:32;;;;;;;;;11.00;10.00;;;;;14.39;100.00;101123.78;4964540;28;45535;-76
2023/04/02 01:38:26;;;;;;;;;10.00;8.00;;;;;14.24;100.00;101115.28;4965711;28;46537;-76
2023/04/02 01:40:59;;;;;;;;;9.00;7.67;;;;;14.40;100.00;101136.38;4965460;28;45504;-76
2023/04/02 01:43:52;;;;;;;;;4.00;4.00;;;;;14.49;100.00;101129.94;4965562;28;45215;-76
2023/04/02 01:46:32;;;;;;;;;4.67;4.33;;;;;14.38;100.00;101138.47;4965874;28;45318;-76
2023/04/02 01:49:02;;;;;;;;;5.67;4.67;;;;;14.03;100.00;101123.88;4980181;28;47379;-76
2023/04/02 01:51:41;;;;;;;;;3.00;3.00;;;;;14.26;100.00;101139.72;4980178;28;45206;-76
2023/04/02 01:54:07;;;;;;;;;3.00;3.00;;;;;14.33;100.00;101140.75;4964233;28;45487;-76
2023/04/02 01:56:34;;;;;;;;;5.00;4.00;;;;;14.25;100.00;101138.00;4964361;28;45377;-76
2023/04/02 01:59:01;;;;;;;;;4.33;3.00;;;;;14.41;100.00;101143.56;4963951;28;47057;-76
2023/04/02 02:01:43;;;;;;;;;3.67;2.67;;;;;14.38;100.00;101149.38;4965324;28;45312;-76
2023/04/02 02:04:12;;;;;;;;;4.00;4.00;;;;;14.34;100.00;101143.34;4980131;28;45482;-76
2023/04/02 02:06:38;;;;;;;;;2.33;2.33;;;;;14.33;100.00;101143.50;4964335;28;45618;-76
2023/04/02 02:09:07;;;;;;;;;5.00;2.33;;;;;14.24;100.00;101141.75;4965240;28;45242;-76
2023/04/02 02:11:35;;;;;;;;;3.00;3.00;;;;;14.16;100.00;101160.84;4965532;28;45341;-76
2023/04/02 02:14:10;;;;;;;;;4.33;4.33;;;;;14.30;100.00;101146.56;4963975;28;45356;-76
2023/04/02 02:16:40;;;;;;;;;3.00;3.00;;;;;14.29;100.00;101156.66;4964271;28;45518;-76
2023/04/02 02:19:43;;;;;;;;;3.00;2.00;;;;;14.21;100.00;101161.22;4963766;28;46962;-76
2023/04/02 02:22:35;;;;;;;;;4.67;3.00;;;;;14.31;100.00;101164.69;4985011;28;45200;-76
2023/04/02 02:25:04;;;;;;;;;3.00;3.00;;;;;14.21;100.00;101169.41;4963742;28;45471;-76
2023/04/02 02:27:42;;;;;;;;;0.67;0.67;;;;;14.22;100.00;101158.31;4965200;28;45225;-76
2023/04/02 02:30:43;;;;;;;;;1.00;1.00;;;;;13.88;100.00;101166.44;4963400;28;47110;-76
2023/04/02 02:33:29;;;;;;;;;0.00;0.00;;;;;13.75;100.00;101184.25;4964808;28;45257;-75
2023/04/02 02:36:07;;;;;;;;;2.00;2.00;;;;;13.76;100.00;101186.84;4964885;28;45282;-76
2023/04/02 02:38:44;;;;;;;;;0.67;0.67;;;;;13.39;100.00;101184.28;4964019;28;45322;-76
2023/04/02 02:41:18;;;;;;;;;2.00;2.00;;;;;13.52;100.00;101192.09;4963367;28;47099;-75
2023/04/02 02:43:58;;;;;;;;;2.00;2.00;;;;;13.63;100.00;101189.13;4976367;28;45266;-76
2023/04/02 02:46:26;;;;;;;;;2.00;2.00;;;;;13.49;100.00;101189.69;4964555;28;45403;-75
2023/04/02 02:48:54;;;;;;;;;0.00;0.00;;;;;13.17;100.00;101182.88;4965106;28;45386;-77
2023/04/02 02:51:39;;;;;;;;;1.00;1.00;;;;;13.29;100.00;101201.78;4963367;28;47095;-77
2023/04/02 02:54:06;;;;;;;;;1.33;1.33;;;;;13.42;100.00;101199.50;4964861;28;45321;-76
2023/04/02 02:56:36;;;;;;;;;1.67;1.67;;;;;13.58;100.00;101207.88;4968639;28;45463;-76
2023/04/02 02:59:06;;;;;;;;;1.00;1.00;;;;;13.68;100.00;101200.44;4974204;28;45424;-76
2023/04/02 03:01:32;;;;;;;;;1.00;1.00;;;;;13.67;100.00;101211.50;4963788;28;47234;-77
2023/04/02 03:03:58;;;;;;;;;1.00;1.00;;;;;13.65;100.00;101211.69;4964807;28;45226;-76
2023/04/02 03:06:23;;;;;;;;;0.00;0.00;;;;;13.71;100.00;101215.66;4965022;28;45480;-77
2023/04/02 03:09:01;;;;;;;;;1.00;1.00;;;;;13.50;100.00;101213.25;4965170;28;45368;-78
2023/04/02 03:11:45;;;;;;;;;7.00;7.00;;;;;13.49;100.00;101225.19;4964300;28;45584;-78
2023/04/02 03:14:30;;;;;;;;;3.00;3.00;;;;;13.60;100.00;101225.78;4962936;28;45345;-78
2023/04/02 03:17:04;;;;;;;;;1.00;1.00;;;;;13.43;100.00;101217.63;4964604;28;45238;-77
2023/04/02 03:19:46;;;;;;;;;2.00;2.00;;;;;13.57;100.00;101230.72;4963267;28;45401;-78
2023/04/02 03:22:26;;;;;;;;;4.00;2.00;;;;;13.47;100.00;101208.94;4963416;28;45467;-78
2023/04/02 03:25:13;;;;;;;;;1.33;1.33;;;;;13.33;100.00;101223.13;4966472;28;45488;-78
2023/04/02 03:27:44;;;;;;;;;1.00;1.00;;;;;13.47;100.00;101230.78;4966663;28;45321;-78
2023/04/02 03:30:35;;;;;;;;;5.00;3.67;;;;;13.17;100.00;101240.19;4968046;28;45393;-77
2023/04/02 03:33:07;;;;;;;;;5.33;5.33;;;;;13.05;100.00;101251.44;4967849;28;46274;-78
2023/04/02 03:35:35;;;;;;;;;7.00;5.00;;;;;13.16;100.00;101249.38;4967712;28;45514;-77
2023/04/02 03:38:10;;;;;;;;;8.00;4.00;;;;;13.40;100.00;101250.66;4967657;28;45459;-78
2023/04/02 03:40:44;;;;;;;;;7.00;4.00;;;;;13.10;100.00;101260.88;4967873;28;45345;-78
2023/04/02 03:43:16;;;;;;;;;9.00;7.33;;;;;13.21;100.00;101257.13;4967411;28;45325;-78
2023/04/02 03:45:49;;;;;;;;;4.00;4.00;;;;;13.03;100.00;101262.50;4967479;28;45187;-77
2023/04/02 03:48:17;;;;;;;;;5.00;5.00;;;;;13.11;100.00;101272.63;4967504;28;45416;-77
2023/04/02 03:50:52;;;;;;;;;7.33;7.33;;;;;13.20;100.00;101261.72;4966733;28;45422;-77
2023/04/02 03:53:22;;;;;;;;;10.33;8.00;;;;;13.27;100.00;101250.19;4967388;28;46306;-78
2023/04/02 03:55:48;;;;;;;;;9.00;7.67;;;;;13.21;100.00;101249.78;4966297;28;45269;-77
2023/04/02 03:58:41;;;;;;;;;7.00;7.00;;;;;13.38;100.00;101271.78;4967452;28;45186;-77
2023/04/02 04:01:25;;;;;;;;;2.67;2.67;;;;;13.26;100.00;101279.34;4966942;28;45238;-77
2023/04/02 04:04:00;;;;;;;;;9.00;4.67;;;;;13.29;100.00;101259.09;4967406;28;45893;-77
2023/04/02 04:06:29;;;;;;;;;4.33;4.33;;;;;13.40;100.00;101267.03;4967378;28;45383;-77
2023/04/02 04:08:57;;;;;;;;;9.00;7.00;;;;;13.22;100.00;101286.97;4966236;28;45295;-77
2023/04/02 04:11:31;;;;;;;;;6.33;6.00;;;;;13.19;100.00;101284.56;4967689;28;45367;-77
2023/04/02 04:14:06;;;;;;;;;11.00;9.00;;;;;13.28;100.00;101298.28;4966088;28;46616;-77
2023/04/02 04:16:41;;;;;;;;;10.00;9.00;;;;;13.06;100.00;101297.66;4967838;28;45438;-77
2023/04/02 04:19:20;;;;;;;;;9.33;9.00;;;;;13.16;100.00;101293.03;4969297;28;45436;-76
2023/04/02 04:21:46;;;;;;;;;15.00;9.67;;;;;13.28;100.00;101287.38;4976323;28;45459;-77
2023/04/02 04:24:33;;;;;;;;;12.33;12.33;;;;;13.37;100.00;101300.94;4965752;28;48082;-77
2023/04/02 04:27:12;;;;;;;;;7.67;7.67;;;;;13.27;100.00;101288.38;4966533;28;45258;-77
2023/04/02 04:29:47;;;;;;;;;13.00;10.67;;;;;13.21;100.00;101295.31;4965686;28;45405;-77
2023/04/02 04:32:25;;;;;;;;;15.00;10.33;;;;;13.40;100.00;101310.72;4965722;28;45685;-77
2023/04/02 04:34:57;;;;;;;;;12.33;10.67;;;;;13.28;100.00;101295.56;4966333;28;45489;-76
2023/04/02 04:37:32;;;;;;;;;12.33;11.00;;;;;13.06;100.00;101284.03;4967050;28;45455;-77
2023/04/02 04:40:18;;;;;;;;;11.00;8.00;;;;;12.85;100.00;101307.94;4967211;28;45361;-76
2023/04/02 04:42:48;;;;;;;;;11.33;9.00;;;;;12.99;100.00;101321.09;4967739;28;45318;-77
2023/04/02 04:45:19;;;;;;;;;10.67;10.67;;;;;13.00;100.00;101327.41;4966586;28;45554;-77
2023/04/02 04:47:55;;;;;;;;;9.67;9.67;;;;;13.14;100.00;101324.22;4966769;28;45448;-77
2023/04/02 04:50:29;;;;;;;;;13.00;11.00;;;;;13.34;100.00;101327.69;4954182;28;45326;-77
2023/04/02 04:52:55;;;;;;;;;8.00;5.67;;;;;13.14;100.00;101343.31;4966915;28;45331;-77
2023/04/02 04:55:29;;;;;;;;;2.67;2.67;;;;;13.13;100.00;101336.13;4965420;28;47950;-77
2023/04/02 04:58:01;;;;;;;;;11.00;11.00;;;;;13.18;100.00;101318.28;4965676;28;45459;-77
2023/04/02 05:01:11;;;;;;;;;12.33;11.00;;;;;13.21;100.00;101347.16;4967082;28;45316;-77
2023/04/02 05:03:45;;;;;;;;;20.00;15.00;;;;;13.19;100.00;101347.31;4970331;28;45487;-77
2023/04/02 05:06:24;;;;;;;;;15.00;11.00;;;;;13.37;100.00;101371.91;4966404;28;45454;-77
2023/04/02 05:08:54;;;;;;;;;13.33;12.67;;;;;13.16;100.00;101336.69;4964824;28;45318;-77
2023/04/02 05:11:29;;;;;;;;;14.00;14.00;;;;;12.93;100.00;101362.59;4965408;28;45460;-77
2023/04/02 05:14:05;;;;;;;;;13.00;11.67;;;;;12.97;100.00;101353.09;4967249;28;45358;-78
2023/04/02 05:16:39;;;;;;;;;16.33;14.33;;;;;12.86;100.00;101367.78;4965473;28;47000;-77
2023/04/02 05:19:12;;;;;;;;;12.00;12.00;;;;;12.92;100.00;101377.25;4981494;28;45404;-77
2023/04/02 05:21:41;;;;;;;;;16.67;12.33;;;;;13.03;100.00;101384.38;4964928;28;45341;-77
2023/04/02 05:24:36;;;;;;;;;14.00;13.67;;;;;12.92;100.00;101388.16;4965495;28;45535;-76
2023/04/02 05:27:37;;;;;;;;;9.00;9.00;;;;;13.05;100.00;101391.41;4964249;28;45535;-76
2023/04/02 05:30:14;;;;;;;;;16.67;16.00;;;;;12.90;100.00;101401.06;4969156;28;45474;-76
2023/04/02 05:32:47;;;;;;;;;12.75;12.00;;;;;13.06;100.00;101395.00;4965920;28;45363;-76
2023/04/02 05:35:18;;;;;;;;;12.33;10.67;;;;;13.19;100.00;101407.34;4979735;28;45353;-77
2023/04/02 05:37:45;;;;;;;;;14.67;13.67;;;;;12.93;100.00;101400.75;4966283;28;45463;-77
2023/04/02 05:40:26;;;;;;;;;15.67;11.00;;;;;13.08;100.00;101407.47;4965220;28;45281;-77
2023/04/02 05:42:52;;;;;;;;;10.67;10.00;;;;;12.84;100.00;101401.69;4966333;28;45265;-77
2023/04/02 05:45:37;;;;;;;;;13.33;10.33;;;;;13.04;100.00;101408.78;4966057;28;45375;-77
2023/04/02 05:48:20;;;;;;;;;20.25;14.50;;;;;13.09;100.00;101422.84;4965591;28;45482;-78
2023/04/02 05:50:52;;;;;;;;;15.00;13.00;;;;;12.96;100.00;101415.97;4966028;28;45321;-77
2023/04/02 05:53:27;;;;;;;;;14.00;11.00;;;;;13.07;100.00;101429.47;4965754;28;45406;-77
2023/04/02 05:56:01;;;;;;;;;12.33;10.67;;;;;13.23;100.00;101429.72;4964999;28;45540;-77
2023/04/02 05:59:02;;;;;;;;;11.67;8.67;;;;;13.19;100.00;101440.06;4964120;28;47015;-77
2023/04/02 06:01:44;;;;;;;;;15.50;10.50;;;;;13.05;100.00;101440.53;4967767;28;45353;-77
2023/04/02 06:04:25;;;;;;;;;12.00;10.67;;;;;12.64;100.00;101416.34;4977486;28;45501;-77
2023/04/02 06:07:03;;;;;;;;;10.00;7.33;;;;;12.95;100.00;101436.94;4966380;28;45223;-77
2023/04/02 06:09:49;;;;;;;;;16.33;9.67;;;;;13.10;100.00;101445.53;4977026;28;48273;-77
2023/04/02 06:12:21;;;;;;;;;10.67;10.00;;;;;12.95;100.00;101447.84;4963550;28;45313;-77
2023/04/02 06:14:46;;;;;;;;;5.00;5.00;;;;;12.74;100.00;101433.53;4964347;28;45250;-77
2023/04/02 06:17:16;;;;;;;;;13.33;13.33;;;;;12.88;100.00;101452.19;4965819;28;45494;-77
2023/04/02 06:19:42;;;;;;;;;12.33;7.00;;;;;12.77;100.00;101446.91;4962893;28;47943;-77
2023/04/02 06:22:15;;;;;;;;;16.00;10.00;;;;;13.13;100.00;101457.06;4965011;28;45241;-77
2023/04/02 06:24:43;;;;;;;;;10.00;6.33;;;;;13.15;100.00;101460.47;4964203;28;45402;-77
2023/04/02 06:27:15;;;;;;;;;11.33;11.33;;;;;13.20;100.00;101460.03;4964335;28;45496;-75
2023/04/02 06:29:44;;;;;;;;;10.67;8.67;;;;;13.08;100.00;101459.31;4965273;28;45451;-77
2023/04/02 06:32:11;;;;;;;;;16.67;11.00;;;;;12.95;100.00;101466.94;4963810;28;45401;-77
2023/04/02 06:34:39;;;;;;;;;8.33;8.00;;;;;12.95;100.00;101464.22;4965076;28;45233;-76
2023/04/02 06:37:34;;;;;;;;;10.67;9.00;;;;;12.97;100.00;101481.31;4964092;28;45444;-77
2023/04/02 06:40:00;;;;;;;;;9.00;9.00;;;;;13.11;100.00;101483.56;4967495;28;45306;-76
2023/04/02 06:42:30;;;;;;;;;12.00;10.00;;;;;13.11;100.00;101491.75;4963389;28;45300;-77
2023/04/02 06:44:56;;;;;;;;;8.67;8.00;;;;;12.97;100.00;101477.72;4965025;28;45619;-76
2023/04/02 06:47:30;;;;;;;;;9.00;8.00;;;;;13.01;100.00;101487.31;4963825;28;45223;-77
2023/04/02 06:50:22;;;;;;;;;12.33;10.00;;;;;12.65;100.00;101499.84;4964155;28;45660;-76
2023/04/02 06:52:54;;;;;;;;;13.67;10.00;;;;;12.78;100.00;101489.53;4964479;28;45278;-76
2023/04/02 06:55:19;;;;;;;;;17.00;13.00;;;;;12.96;100.00;101497.81;4963235;28;45388;-76
2023/04/02 06:57:47;;;;;;;;;15.33;11.00;;;;;13.10;100.00;101498.22;4962137;28;45288;-77
2023/04/02 07:00:34;;;;;;;;;14.00;9.67;;;;;12.92;100.00;101504.56;4964443;28;45639;-76
2023/04/02 07:03:04;;;;;;;;;14.67;11.00;;;;;12.71;100.00;101507.47;4964176;28;45234;-76
2023/04/02 07:05:30;;;;;;;;;12.33;12.00;;;;;12.39;100.00;101497.69;4964529;28;45313;-76
2023/04/02 07:07:55;;;;;;;;;8.00;8.00;;;;;12.76;100.00;101529.69;4964639;28;45273;-76
2023/04/02 07:10:21;;;;;;;;;4.67;1.00;;;;;12.73;100.00;101513.63;4964435;28;45739;-76
2023/04/02 07:12:46;;;;;;;;;8.67;8.67;;;;;12.83;100.00;101534.44;4964227;28;45407;-76
2023/04/02 07:15:16;;;;;;;;;13.67;11.00;;;;;12.85;100.00;101518.81;4964451;28;45362;-76
2023/04/02 07:17:42;;;;;;;;;13.67;10.00;;;;;13.01;100.00;101540.00;4976464;28;45494;-76
2023/04/02 07:20:25;;;;;;;;;9.00;5.67;;;;;13.10;100.00;101544.59;4964086;28;45407;-75
2023/04/02 07:22:51;;;;;;;;;15.25;12.75;;;;;13.09;100.00;101536.56;4963217;28;45272;-76
2023/04/02 07:25:16;;;;;;;;;15.33;10.33;;;;;13.12;100.00;101549.91;4963030;28;45275;-76
2023/04/02 07:27:41;;;;;;;;;15.75;12.00;;;;;13.20;100.00;101550.94;4963236;28;45237;-76
2023/04/02 07:30:07;;;;;;;;;19.50;17.00;;;;;13.04;100.00;101556.09;4964077;28;45550;-76
2023/04/02 07:32:33;;;;;;;;;15.25;13.00;;;;;12.87;100.00;101554.09;4963193;28;45890;-76
2023/04/02 07:34:58;;;;;;;;;15.75;15.75;;;;;12.98;100.00;101564.88;4979522;28;45303;-77
2023/04/02 07:37:23;;;;;;;;;26.00;23.00;;;;;12.91;100.00;101565.59;4964478;28;45476;-75
2023/04/02 07:39:48;;;;;;;;;9.50;9.50;;;;;12.72;100.00;101574.59;4963632;28;45477;-76
2023/04/02 07:42:14;;;;;;;;;24.25;20.25;;;;;13.03;100.00;101580.78;4962660;28;45623;-76
2023/04/02 07:44:39;;;;;;;;;21.25;20.25;;;;;12.86;100.00;101557.81;4963580;28;45237;-77
2023/04/02 07:47:05;;;;;;;;;23.67;16.67;;;;;13.10;100.00;101590.97;4979592;28;45396;-75
2023/04/02 07:49:30;;;;;;;;;19.67;17.67;;;;;13.21;100.00;101590.88;4978541;28;47021;-76
2023/04/02 07:51:55;;;;;;;;;20.00;18.67;;;;;13.23;100.00;101597.03;4963188;28;46397;-77
2023/04/02 07:54:21;;;;;;;;;17.50;15.75;;;;;13.37;100.00;101603.06;4965207;28;45474;-76
2023/04/02 07:56:46;;;;;;;;;19.50;16.00;;;;;13.26;100.00;101601.34;4964365;28;45449;-75
2023/04/02 07:59:11;;;;;;;;;17.00;14.00;;;;;13.44;100.00;101593.28;4963574;28;47732;-76
2023/04/02 08:01:37;;;;;;;;;17.00;15.67;;;;;13.38;100.00;101592.00;4962615;28;45270;-75
2023/04/02 08:04:04;;;;;;;;;14.33;13.00;;;;;13.19;100.00;101603.81;4963325;28;45347;-76
2023/04/02 08:06:29;;;;;;;;;19.33;17.33;;;;;13.06;100.00;101597.75;4963763;28;45309;-76
2023/04/02 08:08:56;;;;;;;;;15.67;15.67;;;;;13.42;100.00;101608.94;4979522;28;46733;-76
2023/04/02 08:11:22;;;;;;;;;21.67;15.00;;;;;13.60;100.00;101618.09;4965692;28;45823;-76
2023/04/02 08:13:47;;;;;;;;;22.75;17.00;;;;;13.48;100.00;101605.63;4966088;28;45451;-77
2023/04/02 08:16:12;;;;;;;;;19.25;16.50;;;;;13.37;100.00;101614.81;4966106;28;45661;-76
2023/04/02 08:18:38;;;;;;;;;19.50;17.50;;;;;13.25;100.00;101614.13;4965026;28;47343;-75
2023/04/02 08:21:08;;;;;;;;;20.50;20.50;;;;;13.06;100.00;101621.44;4967205;28;45270;-77
2023/04/02 08:23:34;;;;;;;;;21.75;17.25;;;;;13.18;100.00;101629.34;4965036;28;45342;-77
2023/04/02 08:26:00;;;;;;;;;20.00;17.50;;;;;13.24;100.00;101615.13;4967940;28;45163;-76
2023/04/02 08:28:26;;;;;;;;;22.00;22.00;;;;;13.11;100.00;101630.03;4966375;28;46219;-76
2023/04/02 08:30:51;;;;;;;;;18.50;18.50;;;;;13.09;100.00;101627.44;4966682;28;45316;-77
2023/04/02 08:33:17;;;;;;;;;18.00;15.00;;;;;13.33;100.00;101642.56;4965253;28;45336;-76
2023/04/02 08:35:44;;;;;;;;;13.75;13.75;;;;;13.32;100.00;101630.78;4967118;28;45349;-76
2023/04/02 08:38:14;;;;;;;;;15.67;13.67;;;;;13.36;100.00;101624.06;4966415;28;45610;-76
2023/04/02 08:40:43;;;;;;;;;15.67;10.00;;;;;13.62;100.00;101632.47;4966029;28;45252;-75
2023/04/02 08:43:17;;;;;;;;;14.33;10.33;;;;;13.43;100.00;101624.31;4966362;28;45350;-75
2023/04/02 08:45:57;;;;;;;;;11.67;11.67;;;;;13.51;100.00;101640.84;4969454;28;45296;-76
2023/04/02 08:48:23;;;;;;;;;18.50;17.25;;;;;13.47;100.00;101639.38;4965146;28;47490;-76
2023/04/02 08:50:49;;;;;;;;;16.50;16.50;;;;;13.44;100.00;101645.16;4966176;28;45214;-76
2023/04/02 08:53:24;;;;;;;;;11.67;11.67;;;;;13.72;100.00;101657.03;4981273;28;45337;-77
2023/04/02 08:55:54;;;;;;;;;15.67;14.67;;;;;13.92;100.00;101664.19;4981871;28;45251;-76
2023/04/02 08:58:33;;;;;;;;;17.33;12.00;;;;;13.60;100.00;101661.78;4964715;28;48426;-76
2023/04/02 09:01:02;;;;;;;;;11.75;11.75;;;;;13.45;100.00;101664.09;4978737;28;45375;-76
2023/04/02 09:03:48;;;;;;;;;13.25;12.00;;;;;13.52;100.00;101675.31;4980860;28;45412;-76
2023/04/02 09:06:17;;;;;;;;;16.67;14.67;;;;;13.76;100.00;101680.31;4980893;28;45413;-76
2023/04/02 09:08:45;;;;;;;;;17.75;16.50;;;;;13.88;100.00;101676.44;4965688;28;45590;-76
2023/04/02 09:11:20;;;;;;;;;17.33;15.67;;;;;13.70;100.00;101700.88;4965749;28;45262;-76
2023/04/02 09:13:50;;;;;;;;;10.00;10.00;;;;;13.57;100.00;101703.06;4964832;28;45276;-77
2023/04/02 09:16:22;;;;;;;;;15.25;15.25;;;;;13.53;100.00;101709.78;4966089;28;45510;-76
2023/04/02 09:18:51;;;;;;;;;17.00;15.00;;;;;13.64;100.00;101712.38;4980239;28;47168;-75
2023/04/02 09:21:19;;;;;;;;;16.00;15.67;;;;;13.69;100.00;101720.13;4965303;28;45400;-77
2023/04/02 09:23:46;;;;;;;;;17.00;17.00;;;;;13.74;100.00;101718.69;4964658;28;45291;-78
2023/04/02 09:26:37;;;;;;;;;15.33;15.00;;;;;13.92;100.00;101721.56;4966741;28;45251;-77
2023/04/02 09:29:15;;;;;;;;;20.33;15.00;;;;;14.04;100.00;101725.84;4965527;28;46766;-77
2023/04/02 09:31:43;;;;;;;;;23.00;17.67;;;;;13.59;100.00;101736.50;4965571;28;45408;-77
2023/04/02 09:34:32;;;;;;;;;20.25;18.00;;;;;13.70;100.00;101730.91;4966260;28;45434;-77
2023/04/02 09:37:15;;;;;;;;;16.67;13.67;;;;;13.74;100.00;101734.22;4965166;28;45213;-77
2023/04/02 09:39:41;;;;;;;;;17.00;15.33;;;;;13.43;100.00;101725.34;4966712;28;46426;-77
2023/04/02 09:42:27;;;;;;;;;20.75;16.50;;;;;13.45;100.00;101732.34;4978758;28;45348;-76
2023/04/02 09:44:52;;;;;;;;;20.67;19.00;;;;;13.30;100.00;101732.91;4965183;28;45494;-77
2023/04/02 09:47:27;;;;;;;;;29.00;23.00;;;;;13.32;100.00;101747.28;4965220;28;45591;-75
2023/04/02 09:49:52;;;;;;;;;24.00;17.00;;;;;13.34;100.00;101735.22;4965088;28;45358;-77
2023/04/02 09:52:28;;;;;;;;;22.67;16.00;;;;;13.21;100.00;101754.63;4966457;28;45246;-77
2023/04/02 09:55:18;;;;;;;;;10.00;9.33;;;;;12.85;100.00;101763.38;4964794;28;45302;-76
2023/04/02 09:57:46;;;;;;;;;21.00;17.67;;;;;12.88;100.00;101739.41;4964608;28;45563;-75
2023/04/02 10:00:15;;;;;;;;;15.50;15.50;;;;;13.20;100.00;101763.81;4965827;28;45329;-77
2023/04/02 10:02:42;;;;;;;;;17.75;14.75;;;;;13.32;100.00;101750.88;4964995;28;45167;-76
2023/04/02 10:05:23;;;;;;;;;15.25;15.00;;;;;13.39;100.00;101757.50;4965166;28;45216;-75
2023/04/02 10:07:52;;;;;;;;;19.50;17.25;;;;;13.39;100.00;101752.03;4964357;28;45318;-76
2023/04/02 10:10:27;;;;;;;;;21.00;15.50;;;;;13.11;100.00;101761.88;4963415;28;47903;-75
2023/04/02 10:13:18;;;;;;;;;17.25;14.50;;;;;13.55;100.00;101768.72;4964770;28;45436;-76
2023/04/02 10:15:51;;;;;;;;;15.50;13.50;;;;;13.53;100.00;101770.72;4964665;28;45158;-75
2023/04/02 10:18:45;;;;;;;;;18.50;14.75;;;;;13.87;100.00;101773.91;4965199;28;45307;-76
2023/04/02 10:21:15;;;;;;;;;16.25;16.25;;;;;13.89;100.00;101782.78;4963283;28;47878;-75
2023/04/02 10:23:40;;;;;;;;;20.00;12.50;;;;;13.52;100.00;101784.50;4964951;28;45300;-76
2023/04/02 10:26:19;;;;;;;;;19.33;15.33;;;;;13.78;100.00;101793.03;4965190;28;45428;-76
2023/04/02 10:29:03;;;;;;;;;21.25;16.00;;;;;13.67;100.00;101780.34;4963930;28;45681;-76
2023/04/02 10:31:56;;;;;;;;;12.00;12.00;;;;;13.78;100.00;101785.69;4964421;28;45411;-78
2023/04/02 10:34:40;;;;;;;;;13.75;13.75;;;;;13.34;100.00;101799.88;4964838;28;45297;-78
2023/04/02 10:37:39;;;;;;;;;16.00;16.00;;;;;13.23;100.00;101800.84;4964091;28;45246;-78
2023/04/02 10:40:23;;;;;;;;;23.25;19.25;;;;;13.63;100.00;101808.97;4963860;28;45289;-78
2023/04/02 10:43:03;;;;;;;;;16.75;14.25;;;;;13.83;100.00;101809.84;4963096;28;45693;-78
2023/04/02 10:45:40;;;;;;;;;15.50;15.00;;;;;14.06;100.00;101811.25;4965000;28;45256;-78
2023/04/02 10:48:37;;;;;;;;;17.50;16.00;;;;;13.98;100.00;101819.31;4964356;28;45320;-78
2023/04/02 10:51:09;;;;;;;;;19.75;17.75;;;;;13.91;100.00;101812.72;4963254;28;45344;-78
2023/04/02 10:53:53;;;;;;;;;23.75;18.25;;;;;14.00;100.00;101812.72;4949992;28;47480;-78
2023/04/02 10:56:21;;;;;;;;;22.00;17.00;;;;;14.16;100.00;101816.72;4964273;28;45483;-78
2023/04/02 10:58:57;;;;;;;;;20.50;17.00;;;;;13.87;100.00;101803.97;4964741;28;45273;-80
2023/04/02 11:01:28;;;;;;;;;15.00;12.00;;;;;13.84;100.00;101820.63;4979781;28;45238;-78
2023/04/02 11:04:02;;;;;;;;;23.25;21.25;;;;;13.81;100.00;101818.16;4962570;28;47384;-78
2023/04/02 11:06:42;;;;;;;;;22.75;21.50;;;;;14.30;100.00;101824.47;4979459;28;45896;-77
2023/04/02 11:09:17;;;;;;;;;17.00;17.00;;;;;14.47;100.00;101829.22;4963246;28;45459;-77
2023/04/02 11:11:48;;;;;;;;;12.75;12.50;;;;;14.45;100.00;101833.97;4964921;28;45273;-76
2023/04/02 11:14:19;;;;;;;;;19.50;18.75;;;;;14.60;100.00;101837.97;4963962;28;45231;-77
2023/04/02 11:16:47;;;;;;;;;20.50;18.75;;;;;14.50;100.00;101837.13;4964120;28;45264;-77
2023/04/02 11:19:16;;;;;;;;;20.75;18.75;;;;;14.66;100.00;101834.66;4962802;28;45279;-79
2023/04/02 11:21:46;;;;;;;;;13.75;12.25;;;;;14.72;100.00;101844.97;4963548;28;45259;-77
2023/04/02 11:24:32;;;;;;;;;22.50;16.50;;;;;14.71;100.00;101840.53;4963990;28;46565;-77
2023/04/02 11:27:10;;;;;;;;;25.75;21.25;;;;;14.64;100.00;101830.31;4964097;28;45289;-77
2023/04/02 11:29:38;;;;;;;;;21.33;18.00;;;;;14.72;100.00;101850.47;4964506;28;45529;-77
2023/04/02 11:32:38;;;;;;;;;15.33;15.33;;;;;14.65;100.00;101856.66;4979129;28;45397;-76
2023/04/02 11:35:31;;;;;;;;;25.50;20.75;;;;;14.47;100.00;101858.41;4978526;28;48130;-77
2023/04/02 11:38:02;;;;;;;;;23.25;18.75;;;;;14.62;100.00;101856.94;4963722;28;45481;-77
2023/04/02 11:40:43;;;;;;;;;21.00;20.00;;;;;14.61;100.00;101860.72;4963853;28;45393;-77